Pangnirtung, Canada
Current Conditions -  °F | °C
As of 4:00 PM on Wednesday 26 Nov 2014 (Local Time) from CYXP Reporting Station
Light Snow Light Snow  
Wind Chill: -12°   Ceiling: 2000
Heat Index:   Visibility: 8mi
Dew Point:   Wind: 13mph
Humidity: 78%   Direction: 280°W
Pressure: 29.58"   Gusts: NA
Location:  66.15°N, 65.69°W
Report Text: CYXP 262000Z 28011KT 8SM -SN DRSN BKN020 BKN070 M15/M18 A2958 RMK SC5AC1 SLP019
Loading
Personal Weather Stations






























Interactive Weather Map New forecast layout! Learn more

10-Day Weather Forecast

Advertisements
Track Severe Weather on mobile